Penns Park, Pennsylvania
Current Conditions -  °F | °C
As of 2:54 AM on Friday 19 Dec 2014 (Local Time) from KDYL Reporting Station
Overcast Overcast  
Wind Chill: -2°   Ceiling: 3000
Heat Index:   Visibility: 10mi
Dew Point: -3°   Wind: 7mph
Humidity: 73%   Direction: 280°W
Pressure: 30"   Gusts: NA
Location:  40.27°N, 75°W
Report Text: KDYL 190754Z AUTO 28006KT 10SM OVC030 01/M03 A3000 RMK AO2 SLP167 T00111033
Loading
Personal Weather Stations






























Interactive Weather Map New forecast layout! Learn more

10-Day Weather Forecast

Advertisements
Track Severe Weather on mobile